Time;durP1;ratioP1;P1;durP2;ratioP2;P2;SDS_P1;SDS_P2;PMS_P1;PMS_P2;Temp;Humidity;BMP_temperature;BMP_pressure;BME280_temperature;BME280_humidity;BME280_pressure;Samples;Min_cycle;Max_cycle;Signal;HPM_P1;HPM_P2
2022/08/13 00:00:32;;;;;;;2.90;2.63;;;;;;;20.04;48.62;156515.19;4981378;28;20449;-77
2022/08/13 00:02:59;;;;;;;2.90;2.63;;;;;;;19.99;48.87;156502.09;4986674;28;20480;-76
2022/08/13 00:05:26;;;;;;;2.73;2.53;;;;;;;20.00;48.81;156506.03;4974488;28;20508;-76
2022/08/13 00:07:53;;;;;;;2.80;2.50;;;;;;;19.91;49.18;156481.22;4981381;28;20452;-78
2022/08/13 00:10:23;;;;;;;5.23;3.20;;;;;;;19.82;49.12;156457.78;4991790;28;20886;-78
2022/08/13 00:13:03;;;;;;;3.17;2.87;;;;;;;19.83;48.87;156460.41;4990328;28;20523;-77
2022/08/13 00:15:33;;;;;;;2.73;2.53;;;;;;;19.74;49.16;156436.91;5009615;28;21150;-76
2022/08/13 00:18:03;;;;;;;2.83;2.63;;;;;;;19.73;49.86;156434.28;4975093;28;20457;-76
2022/08/13 00:20:31;;;;;;;3.40;3.10;;;;;;;19.72;50.05;156431.72;4992340;28;20551;-76
2022/08/13 00:22:59;;;;;;;3.30;3.10;;;;;;;19.67;49.94;156418.69;5010052;28;20480;-76
2022/08/13 00:25:27;;;;;;;3.50;2.70;;;;;;;19.69;50.18;156425.19;4993694;28;20445;-76
2022/08/13 00:27:58;;;;;;;3.13;2.70;;;;;;;19.69;50.18;156425.19;4990194;28;20449;-77
2022/08/13 00:30:28;;;;;;;2.83;2.47;;;;;;;19.68;50.45;156422.56;5002472;28;20437;-78
2022/08/13 00:32:56;;;;;;;4.37;3.17;;;;;;;19.67;50.77;156419.94;4994206;28;21014;-77
2022/08/13 00:35:23;;;;;;;3.47;2.50;;;;;;;19.71;50.99;156430.41;5006797;28;20456;-76
2022/08/13 00:37:50;;;;;;;4.27;3.00;;;;;;;19.65;50.74;156414.75;5003750;28;20536;-76
2022/08/13 00:40:17;;;;;;;3.13;2.93;;;;;;;19.61;50.90;156403.03;4983413;28;22648;-76
2022/08/13 00:42:45;;;;;;;6.20;3.00;;;;;;;19.54;51.19;156384.78;4974654;28;20464;-76
2022/08/13 00:45:14;;;;;;;3.30;3.00;;;;;;;19.47;51.55;156366.50;4991968;28;20449;-76
2022/08/13 00:50:26;;;;;;;4.90;3.00;;;;;;;19.29;51.98;156322.16;4988497;28;20444;-77
2022/08/13 00:52:54;;;;;;;3.60;3.17;;;;;;;19.29;52.42;156322.16;5002467;28;20524;-77
2022/08/13 00:55:22;;;;;;;3.30;3.00;;;;;;;19.18;52.85;156292.19;4988473;28;20496;-77
2022/08/13 00:57:50;;;;;;;3.40;3.20;;;;;;;19.16;52.64;156288.28;4995791;28;20472;-77
2022/08/13 01:00:19;;;;;;;3.70;3.23;;;;;;;19.08;52.92;156267.44;4988036;28;20877;-77
2022/08/13 01:02:48;;;;;;;2.90;2.70;;;;;;;19.17;52.73;156290.88;4980784;28;20593;-76
2022/08/13 01:05:15;;;;;;;3.10;2.80;;;;;;;19.07;53.07;156263.50;4991364;28;20457;-77
2022/08/13 01:07:43;;;;;;;3.93;2.50;;;;;;;19.07;53.17;156263.50;4974586;28;20801;-77
2022/08/13 01:10:10;;;;;;;3.53;3.10;;;;;;;19.09;53.02;156270.00;4984911;28;20537;-77
2022/08/13 01:12:38;;;;;;;3.50;3.20;;;;;;;19.09;53.11;156270.00;4987604;28;20540;-77
2022/08/13 01:15:11;;;;;;;3.23;2.80;;;;;;;19.18;53.52;156293.50;4976672;28;20461;-76
2022/08/13 01:17:38;;;;;;;3.60;3.13;;;;;;;19.23;53.41;156305.19;5011695;28;20436;-76
2022/08/13 01:20:07;;;;;;;3.30;3.00;;;;;;;19.19;53.40;156296.13;5003605;28;20544;-76
2022/08/13 01:22:35;;;;;;;3.73;3.10;;;;;;;19.18;53.25;156292.19;4994502;28;20515;-76
2022/08/13 01:25:05;;;;;;;3.43;3.00;;;;;;;19.10;53.72;156272.63;4991068;28;20452;-76
2022/08/13 01:27:32;;;;;;;3.50;3.20;;;;;;;19.06;53.84;156262.19;5012802;28;20460;-76
2022/08/13 01:30:05;;;;;;;5.10;2.80;;;;;;;18.99;53.85;156243.97;5009391;28;20453;-76
2022/08/13 01:32:32;;;;;;;3.37;3.07;;;;;;;18.96;54.44;156236.13;4996951;28;20449;-76
2022/08/13 01:35:00;;;;;;;3.57;3.27;;;;;;;18.95;54.58;156233.56;5009598;28;20469;-76
2022/08/13 01:37:27;;;;;;;3.17;2.93;;;;;;;18.85;54.85;156207.47;4994064;28;20445;-76
2022/08/13 01:39:55;;;;;;;3.33;3.03;;;;;;;18.90;54.88;156220.53;5011726;28;20548;-76
2022/08/13 01:42:22;;;;;;;3.70;3.20;;;;;;;18.84;55.16;156204.88;4996480;28;20449;-76
2022/08/13 01:44:50;;;;;;;4.00;3.33;;;;;;;18.78;55.36;156190.53;5012204;28;20519;-76
2022/08/13 01:52:47;;;;;;;3.40;3.10;;;;;;;18.61;56.32;156144.97;4995588;28;20437;-76
2022/08/13 01:55:17;;;;;;;3.50;3.20;;;;;;;18.60;56.66;156142.34;4993395;28;20841;-76
2022/08/13 01:57:44;;;;;;;3.97;3.13;;;;;;;18.59;57.02;156139.72;5003047;28;21099;-76
2022/08/13 02:00:13;;;;;;;2.90;2.70;;;;;;;18.61;56.89;156146.22;4993795;28;20461;-76
2022/08/13 02:02:43;;;;;;;2.97;2.67;;;;;;;18.60;57.28;156143.66;4990684;28;20441;-76
2022/08/13 02:05:10;;;;;;;3.30;2.70;;;;;;;18.61;57.12;156144.97;4985076;28;20446;-77
2022/08/13 02:07:37;;;;;;;3.60;3.30;;;;;;;18.53;57.65;156125.38;4975662;28;20889;-76
2022/08/13 02:10:05;;;;;;;3.27;2.93;;;;;;;18.45;57.71;156103.22;4958309;28;20544;-77
2022/08/13 02:12:33;;;;;;;3.60;3.30;;;;;;;18.38;58.02;156084.97;4991802;28;20457;-77
2022/08/13 02:15:02;;;;;;;3.70;3.40;;;;;;;18.56;57.34;156131.94;4992056;28;20584;-77
2022/08/13 02:17:30;;;;;;;3.50;3.20;;;;;;;18.50;57.52;156116.31;4975716;28;20460;-76
2022/08/13 02:19:58;;;;;;;3.10;2.90;;;;;;;18.49;57.69;156114.97;4973943;28;20497;-77
2022/08/13 02:22:25;;;;;;;3.70;3.07;;;;;;;18.48;57.51;156111.09;4975422;28;20792;-76
2022/08/13 02:24:53;;;;;;;3.30;3.00;;;;;;;18.50;57.52;156116.31;4993384;28;20446;-77
2022/08/13 02:27:21;;;;;;;3.40;3.20;;;;;;;18.48;57.86;156111.09;4990980;28;20501;-77
2022/08/13 02:29:51;;;;;;;3.23;2.93;;;;;;;18.46;57.77;156107.09;4974874;28;20442;-77
2022/08/13 02:32:19;;;;;;;3.50;3.20;;;;;;;18.45;58.13;156104.53;4975979;28;20540;-76
2022/08/13 02:34:49;;;;;;;3.37;2.80;;;;;;;18.44;58.26;156100.59;4976196;28;20484;-77
2022/08/13 02:37:21;;;;;;;3.57;3.27;;;;;;;18.42;57.81;156096.72;4973499;28;20560;-77
2022/08/13 02:39:48;;;;;;;5.00;3.40;;;;;;;18.44;57.85;156100.59;4975167;28;20437;-77
2022/08/13 02:42:15;;;;;;;2.80;2.60;;;;;;;18.38;58.37;156084.97;4992556;28;20454;-77
2022/08/13 02:44:44;;;;;;;3.60;3.30;;;;;;;18.33;58.56;156073.25;4975613;28;20655;-77
2022/08/13 02:47:13;;;;;;;3.00;2.80;;;;;;;18.34;58.46;156075.88;4989744;28;20954;-77
2022/08/13 02:49:40;;;;;;;3.67;3.37;;;;;;;18.36;58.23;156081.06;4974806;28;20461;-77
2022/08/13 02:52:08;;;;;;;4.17;3.10;;;;;;;18.36;58.32;156079.75;4975414;28;20449;-77
2022/08/13 02:54:39;;;;;;;3.97;3.67;;;;;;;18.36;58.01;156079.75;4991032;28;20469;-78
2022/08/13 02:57:06;;;;;;;3.23;2.93;;;;;;;18.31;58.44;156066.75;4994239;28;20983;-77
2022/08/13 02:59:33;;;;;;;3.60;3.30;;;;;;;18.28;58.51;156060.22;4977740;28;22664;-78
2022/08/13 03:02:01;;;;;;;3.50;3.20;;;;;;;18.23;58.75;156047.22;4976928;28;20505;-77
2022/08/13 03:04:30;;;;;;;3.03;2.83;;;;;;;18.11;58.72;156015.94;4993282;28;20696;-77
2022/08/13 03:06:57;;;;;;;3.43;3.23;;;;;;;18.03;58.64;155995.16;5008002;28;20543;-77
2022/08/13 03:09:23;;;;;;;3.13;2.93;;;;;;;18.01;58.49;155991.22;4993709;28;20457;-79
2022/08/13 03:11:51;;;;;;;4.17;3.30;;;;;;;18.01;58.92;155991.22;5004459;28;20965;-78
2022/08/13 03:14:19;;;;;;;3.57;3.27;;;;;;;18.04;58.79;155999.03;4991219;28;20532;-76
2022/08/13 03:16:46;;;;;;;3.60;3.30;;;;;;;18.06;58.84;156004.22;4999469;28;20444;-76
2022/08/13 03:19:12;;;;;;;4.07;3.67;;;;;;;18.04;58.84;155997.72;4989604;28;20441;-76
2022/08/13 03:21:43;;;;;;;3.40;3.10;;;;;;;18.03;59.25;155996.41;5001275;28;20516;-76
2022/08/13 03:24:12;;;;;;;3.27;3.00;;;;;;;18.03;58.74;155995.16;4994613;28;20429;-76
2022/08/13 03:26:39;;;;;;;3.80;3.50;;;;;;;17.98;58.69;155982.06;4993486;28;20442;-76
2022/08/13 03:29:07;;;;;;;3.60;3.30;;;;;;;17.94;59.66;155973.00;5000461;28;20504;-76
2022/08/13 03:31:35;;;;;;;3.37;3.07;;;;;;;17.92;59.63;155967.78;4979005;28;20445;-76
2022/08/13 03:34:03;;;;;;;3.47;3.17;;;;;;;17.96;59.75;155976.88;4979751;28;20476;-76
2022/08/13 03:36:31;;;;;;;5.83;3.47;;;;;;;17.98;59.14;155983.38;4992101;28;20817;-76
2022/08/13 03:38:59;;;;;;;3.30;3.00;;;;;;;17.94;59.45;155971.69;4993065;28;20460;-76
2022/08/13 03:41:27;;;;;;;3.80;3.50;;;;;;;17.93;59.35;155969.06;4994091;28;20440;-77
2022/08/13 03:43:55;;;;;;;3.27;3.03;;;;;;;17.93;59.14;155969.06;4997544;28;20442;-76
2022/08/13 03:46:23;;;;;;;4.13;3.17;;;;;;;17.86;58.99;155950.84;4981122;28;20448;-76
2022/08/13 03:48:50;;;;;;;3.20;2.90;;;;;;;17.75;58.74;155923.50;4987395;28;20442;-76
2022/08/13 03:51:22;;;;;;;3.43;3.23;;;;;;;17.63;58.77;155892.28;4992130;28;20422;-76
2022/08/13 03:53:50;;;;;;;3.40;3.10;;;;;;;17.53;59.90;155867.53;4988587;28;20858;-76
2022/08/13 03:56:18;;;;;;;4.00;3.60;;;;;;;17.42;59.87;155837.56;4985836;28;20868;-76
2022/08/13 03:58:46;;;;;;;5.27;3.20;;;;;;;17.38;60.57;155827.13;4987562;28;20480;-77
2022/08/13 04:01:13;;;;;;;3.90;3.60;;;;;;;17.33;61.17;155814.13;5009798;28;20436;-77
2022/08/13 04:03:41;;;;;;;3.70;3.33;;;;;;;17.33;61.01;155814.13;4993173;28;20437;-77
2022/08/13 04:06:12;;;;;;;4.23;3.80;;;;;;;17.44;60.63;155842.75;5003893;28;20536;-77
2022/08/13 04:08:39;;;;;;;4.00;3.60;;;;;;;17.49;60.44;155855.78;4990521;28;20449;-76
2022/08/13 04:11:08;;;;;;;3.60;3.30;;;;;;;17.47;60.51;155850.56;5008289;28;20449;-76
2022/08/13 04:13:37;;;;;;;3.57;3.27;;;;;;;17.33;60.54;155814.13;4976581;28;20484;-76
2022/08/13 04:16:07;;;;;;;4.07;3.70;;;;;;;17.33;61.03;155815.44;4994815;28;20464;-77
2022/08/13 04:18:35;;;;;;;3.57;3.27;;;;;;;17.36;61.52;155821.94;4991812;28;20455;-76
2022/08/13 04:21:04;;;;;;;3.77;3.40;;;;;;;17.40;60.88;155832.31;5005305;28;20477;-76
2022/08/13 04:23:33;;;;;;;3.97;3.57;;;;;;;17.38;61.43;155827.13;4974556;28;20453;-76
2022/08/13 04:26:00;;;;;;;3.70;3.40;;;;;;;17.37;60.84;155824.50;5003744;28;20421;-76
2022/08/13 04:28:27;;;;;;;3.70;3.40;;;;;;;17.36;60.62;155821.94;4986101;28;20457;-77
2022/08/13 04:30:56;;;;;;;3.47;3.20;;;;;;;17.36;60.85;155823.25;5001246;28;20422;-76
2022/08/13 04:33:23;;;;;;;3.93;3.63;;;;;;;17.39;60.72;155829.75;4990420;28;20472;-77
2022/08/13 04:35:50;;;;;;;7.33;3.60;;;;;;;17.32;60.42;155812.81;5007011;28;20464;-77
2022/08/13 04:38:17;;;;;;;3.60;3.30;;;;;;;17.28;61.52;155802.41;4987492;28;20560;-76
2022/08/13 04:40:46;;;;;;;4.20;3.80;;;;;;;17.23;61.49;155788.09;5003921;28;20507;-77
2022/08/13 04:43:14;;;;;;;3.60;3.30;;;;;;;17.20;61.72;155780.28;4975333;28;20462;-76
2022/08/13 04:45:42;;;;;;;3.70;3.40;;;;;;;17.19;61.96;155777.66;4989237;28;20950;-76
2022/08/13 04:48:12;;;;;;;3.80;3.50;;;;;;;17.16;61.71;155771.16;5000354;28;20464;-77
2022/08/13 04:50:40;;;;;;;10.13;3.77;;;;;;;17.21;61.59;155782.91;5014649;28;20888;-76
2022/08/13 04:53:09;;;;;;;4.40;3.77;;;;;;;17.27;62.37;155799.78;4988209;28;20504;-76
2022/08/13 04:55:37;;;;;;;3.37;3.07;;;;;;;17.35;62.94;155820.63;4985056;28;20909;-76
2022/08/13 04:58:04;;;;;;;3.63;3.33;;;;;;;17.39;62.95;155829.75;4985590;28;20531;-76
2022/08/13 05:00:32;;;;;;;4.10;3.80;;;;;;;17.40;63.11;155832.31;4995531;28;20463;-77
2022/08/13 05:03:08;;;;;;;4.03;3.73;;;;;;;17.40;63.45;155833.63;5001761;28;20460;-76
2022/08/13 05:05:36;;;;;;;4.30;3.90;;;;;;;17.42;63.15;155837.56;4996997;28;20538;-76
2022/08/13 05:08:04;;;;;;;3.73;3.37;;;;;;;17.49;63.73;155857.09;4987812;28;20512;-76
2022/08/13 05:10:32;;;;;;;4.33;3.80;;;;;;;17.52;63.37;155863.59;4986048;28;20491;-76
2022/08/13 05:13:01;;;;;;;4.40;4.00;;;;;;;17.45;63.03;155845.34;4996668;28;20456;-76
2022/08/13 05:15:28;;;;;;;4.47;4.07;;;;;;;17.51;63.14;155860.97;5014712;28;20467;-76
2022/08/13 05:17:55;;;;;;;4.10;3.70;;;;;;;17.93;61.65;155970.38;4995570;28;20448;-76
2022/08/13 05:20:22;;;;;;;3.80;3.50;;;;;;;18.24;60.50;156051.09;4992258;28;20480;-76
2022/08/13 05:22:51;;;;;;;4.53;4.13;;;;;;;18.63;58.83;156150.16;4979297;28;20449;-76
2022/08/13 05:25:18;;;;;;;4.00;3.60;;;;;;;18.89;58.46;156216.59;4966577;28;20448;-76
2022/08/13 05:27:45;;;;;;;3.67;3.37;;;;;;;19.17;57.17;156290.88;4995038;28;20448;-76
2022/08/13 05:30:13;;;;;;;5.70;3.93;;;;;;;19.29;56.97;156322.16;4967428;28;20447;-76
2022/08/13 05:32:40;;;;;;;3.87;3.53;;;;;;;19.39;56.41;156346.97;4996728;28;20444;-76
2022/08/13 05:35:10;;;;;;;3.40;3.20;;;;;;;19.61;55.95;156404.34;4988352;28;20991;-76
2022/08/13 05:37:36;;;;;;;3.70;3.20;;;;;;;19.83;55.83;156460.41;5005135;28;20457;-76
2022/08/13 05:40:05;;;;;;;3.83;3.53;;;;;;;20.08;55.01;156525.59;5003298;28;21017;-76
2022/08/13 05:42:39;;;;;;;5.20;3.30;;;;;;;20.36;53.69;156598.66;5005706;28;20465;-76
2022/08/13 05:45:08;;;;;;;3.73;3.43;;;;;;;20.53;53.36;156641.72;4994441;28;20418;-76
2022/08/13 05:47:35;;;;;;;3.70;3.40;;;;;;;20.58;53.31;156656.06;4999965;28;20985;-75
2022/08/13 05:50:13;;;;;;;4.20;3.80;;;;;;;20.76;53.30;156700.44;5013275;28;20437;-76
2022/08/13 05:52:40;;;;;;;4.20;3.80;;;;;;;20.90;53.00;156738.25;4995892;28;20461;-75
2022/08/13 05:55:11;;;;;;;3.10;2.90;;;;;;;20.80;52.55;156710.84;5013275;28;20469;-76
2022/08/13 05:57:38;;;;;;;4.10;3.80;;;;;;;20.86;51.95;156726.53;4995078;28;20582;-76
2022/08/13 06:05:35;;;;;;;4.40;3.87;;;;;;;21.26;51.96;156829.66;4960060;28;20433;-76
2022/08/13 06:08:04;;;;;;;3.90;3.50;;;;;;;21.44;51.36;156876.66;4976010;28;20457;-76
2022/08/13 06:10:33;;;;;;;7.30;4.30;;;;;;;21.47;51.04;156885.75;4988540;28;20450;-76
2022/08/13 06:13:01;;;;;;;4.83;4.37;;;;;;;21.42;50.74;156871.44;4995615;28;20476;-76
2022/08/13 06:15:28;;;;;;;4.63;4.10;;;;;;;21.71;50.24;156947.16;4995128;28;20472;-75
2022/08/13 06:17:55;;;;;;;4.20;3.90;;;;;;;21.81;50.15;156974.56;5010449;28;20492;-75
2022/08/13 06:20:22;;;;;;;4.73;3.53;;;;;;;21.84;50.42;156981.09;4991978;28;21056;-76
2022/08/13 06:22:51;;;;;;;4.37;3.97;;;;;;;22.10;49.30;157049.06;4993197;28;20530;-76
2022/08/13 06:25:19;;;;;;;4.07;3.67;;;;;;;22.40;48.23;157126.06;4992790;28;20493;-76
2022/08/13 06:27:47;;;;;;;4.00;3.70;;;;;;;22.60;48.19;157178.34;5006861;28;20464;-76
2022/08/13 06:30:17;;;;;;;4.80;3.63;;;;;;;22.51;48.26;157154.81;4983259;28;20512;-76
2022/08/13 06:32:44;;;;;;;4.33;3.90;;;;;;;22.62;48.00;157183.56;4992350;28;20513;-76
2022/08/13 06:35:11;;;;;;;4.40;4.10;;;;;;;22.84;47.12;157241.13;4978135;28;20469;-76
2022/08/13 06:37:41;;;;;;;4.20;3.90;;;;;;;22.86;47.24;157246.31;4990698;28;20441;-77
2022/08/13 06:40:11;;;;;;;3.73;3.47;;;;;;;23.14;46.60;157316.91;4976862;28;20485;-76
2022/08/13 06:42:40;;;;;;;3.70;3.40;;;;;;;23.23;46.16;157340.41;4991795;28;21008;-76
2022/08/13 06:45:10;;;;;;;3.50;3.20;;;;;;;23.18;45.72;157327.34;5007968;28;20457;-77
2022/08/13 06:47:38;;;;;;;4.20;3.80;;;;;;;23.22;46.34;157337.81;4993073;28;20461;-76
2022/08/13 06:50:09;;;;;;;3.77;3.53;;;;;;;23.11;46.38;157310.38;4991006;28;20832;-76
2022/08/13 06:52:37;;;;;;;4.60;4.27;;;;;;;23.05;46.14;157294.69;4974280;28;20548;-76
2022/08/13 06:55:07;;;;;;;3.80;3.50;;;;;;;23.25;46.15;157345.63;4974020;28;20440;-76
2022/08/13 06:57:35;;;;;;;4.07;3.77;;;;;;;23.17;45.82;157326.00;4990888;28;21018;-76
2022/08/13 07:00:04;;;;;;;4.30;4.00;;;;;;;23.33;45.97;157367.84;4983562;28;20564;-77
2022/08/13 07:02:34;;;;;;;4.60;4.20;;;;;;;23.30;45.69;157360.00;4975382;28;20454;-76
2022/08/13 07:05:00;;;;;;;5.00;4.43;;;;;;;23.47;45.70;157403.19;4973132;28;20442;-77
2022/08/13 07:07:28;;;;;;;4.50;4.20;;;;;;;23.77;44.86;157480.31;4990192;28;20473;-79
2022/08/13 07:09:55;;;;;;;4.13;3.83;;;;;;;23.81;44.77;157490.75;4989313;28;20561;-76
2022/08/13 07:12:22;;;;;;;4.80;4.40;;;;;;;23.89;44.43;157511.69;4991311;28;20450;-79
2022/08/13 07:14:49;;;;;;;4.60;4.20;;;;;;;24.10;44.00;157567.97;4991137;28;20787;-78
2022/08/13 07:17:16;;;;;;;4.07;3.77;;;;;;;24.03;43.93;157549.63;4974848;28;20591;-76
2022/08/13 07:19:44;;;;;;;4.70;3.80;;;;;;;23.91;44.63;157518.22;4976580;28;20477;-77
2022/08/13 07:22:11;;;;;;;4.57;4.10;;;;;;;24.22;43.84;157598.06;4992970;28;20957;-77
2022/08/13 07:24:38;;;;;;;4.10;3.80;;;;;;;24.36;44.42;157633.38;4991616;28;21024;-79
2022/08/13 07:27:07;;;;;;;4.20;3.90;;;;;;;24.53;43.56;157677.81;4991417;28;20833;-78
2022/08/13 07:29:35;;;;;;;3.93;3.63;;;;;;;24.50;43.65;157671.28;4990627;28;20476;-78
2022/08/13 07:32:04;;;;;;;4.40;4.00;;;;;;;24.85;43.48;157761.59;4991663;28;20441;-78
2022/08/13 07:34:32;;;;;;;4.03;3.73;;;;;;;24.78;43.57;157743.25;4967211;28;20446;-78
2022/08/13 07:37:03;;;;;;;4.23;3.93;;;;;;;25.16;42.99;157841.41;4985598;28;20827;-76
2022/08/13 07:39:31;;;;;;;3.93;3.63;;;;;;;25.05;42.76;157812.59;4988386;28;20442;-79
2022/08/13 07:41:58;;;;;;;4.50;3.90;;;;;;;25.05;42.68;157813.91;4991660;28;20441;-79
2022/08/13 07:44:25;;;;;;;3.97;3.67;;;;;;;25.58;42.01;157951.38;4973115;28;20488;-76
2022/08/13 07:46:52;;;;;;;4.10;3.70;;;;;;;26.09;41.01;158082.28;4988802;28;20463;-76
2022/08/13 07:49:20;;;;;;;3.93;3.63;;;;;;;26.01;40.67;158062.66;4992011;28;20426;-76
2022/08/13 07:51:48;;;;;;;4.23;3.83;;;;;;;25.65;41.92;157968.44;4990702;28;20449;-76
2022/08/13 07:54:16;;;;;;;4.43;4.03;;;;;;;25.74;41.12;157993.28;4973723;28;20801;-77
2022/08/13 07:56:53;;;;;;;4.00;3.50;;;;;;;25.75;41.44;157995.91;4987558;28;20571;-77
2022/08/13 07:59:20;;;;;;;4.03;3.73;;;;;;;26.33;40.30;158146.53;5011524;28;20432;-77
2022/08/13 08:01:49;;;;;;;3.90;3.60;;;;;;;26.88;39.70;158288.00;4992643;28;20476;-79
2022/08/13 08:04:17;;;;;;;4.70;4.30;;;;;;;26.51;40.16;158193.66;5010566;28;20447;-78
2022/08/13 08:06:45;;;;;;;4.67;4.37;;;;;;;26.38;40.14;158159.63;5008512;28;20489;-78
2022/08/13 08:09:18;;;;;;;4.20;3.90;;;;;;;26.68;39.75;158236.91;4992102;28;20464;-78
2022/08/13 08:14:30;;;;;;;4.30;4.00;;;;;;;26.85;39.65;158281.47;4991883;28;20402;-78
2022/08/13 08:16:57;;;;;;;4.60;4.20;;;;;;;26.79;39.62;158264.47;5001919;28;20468;-78
2022/08/13 08:19:24;;;;;;;4.20;3.90;;;;;;;26.90;39.19;158293.28;5005510;28;20442;-78
2022/08/13 08:21:51;;;;;;;4.40;4.10;;;;;;;26.80;39.70;158267.06;4988508;28;20440;-78
2022/08/13 08:24:19;;;;;;;4.40;4.10;;;;;;;27.05;39.02;158332.56;5007270;28;20909;-79
2022/08/13 08:26:47;;;;;;;4.57;4.20;;;;;;;27.26;38.69;158386.28;4993633;28;20448;-78
2022/08/13 08:29:15;;;;;;;3.83;3.53;;;;;;;26.93;39.13;158301.09;5015220;28;20436;-79
2022/08/13 08:31:42;;;;;;;6.83;5.00;;;;;;;26.63;39.50;158222.50;4995093;28;20433;-78
2022/08/13 08:34:09;;;;;;;4.53;4.13;;;;;;;26.66;40.03;158230.34;5011030;28;20507;-78
2022/08/13 08:36:41;;;;;;;4.10;3.80;;;;;;;27.15;39.65;158358.78;5011933;28;20487;-77
2022/08/13 08:44:41;;;;;;;3.97;3.67;;;;;;;26.83;39.36;158276.25;5011997;28;20512;-78
2022/08/13 08:47:08;;;;;;;4.33;3.93;;;;;;;26.75;39.15;158253.91;5004423;28;20449;-77
2022/08/13 08:49:37;;;;;;;4.47;4.17;;;;;;;26.69;40.09;158239.50;5003872;28;20955;-77
2022/08/13 08:52:04;;;;;;;4.10;3.80;;;;;;;26.92;39.53;158298.53;5007438;28;20479;-78
2022/08/13 08:54:31;;;;;;;4.47;4.07;;;;;;;26.45;40.04;158176.66;4983481;28;20469;-77
2022/08/13 08:57:00;;;;;;;5.00;4.60;;;;;;;26.22;40.59;158116.38;4989882;28;20483;-78
2022/08/13 08:59:29;;;;;;;4.13;3.80;;;;;;;26.22;40.61;158117.72;4975723;28;20536;-78
2022/08/13 09:01:56;;;;;;;4.73;3.80;;;;;;;26.17;40.75;158104.63;4973001;28;20453;-78
2022/08/13 09:04:25;;;;;;;4.23;3.90;;;;;;;25.93;40.96;158041.72;4993326;28;20850;-78
2022/08/13 09:06:55;;;;;;;5.77;3.90;;;;;;;25.81;41.70;158011.63;4991279;28;20456;-77
2022/08/13 09:09:22;;;;;;;4.70;4.20;;;;;;;25.95;41.35;158046.94;4975182;28;20452;-78
2022/08/13 09:11:51;;;;;;;4.13;3.83;;;;;;;25.80;41.31;158007.69;4963789;28;20520;-77
2022/08/13 09:14:19;;;;;;;3.40;3.10;;;;;;;25.92;41.82;158039.13;4994804;28;20446;-77
2022/08/13 09:16:47;;;;;;;4.33;4.03;;;;;;;25.65;41.60;157968.44;4971343;28;20476;-77
2022/08/13 09:19:15;;;;;;;4.13;3.73;;;;;;;25.47;42.00;157922.56;4988974;28;20550;-77
2022/08/13 09:21:44;;;;;;;4.67;4.27;;;;;;;25.03;42.37;157808.69;4977468;28;20456;-77
2022/08/13 09:24:15;;;;;;;3.80;3.50;;;;;;;25.05;43.50;157813.91;4973626;28;20439;-77
2022/08/13 09:26:45;;;;;;;4.20;3.90;;;;;;;25.19;42.18;157849.25;4990199;28;20877;-77
2022/08/13 09:29:14;;;;;;;4.20;3.90;;;;;;;25.10;42.18;157827.00;4988019;28;20484;-77
2022/08/13 09:31:44;;;;;;;4.23;3.60;;;;;;;24.91;42.62;157776.00;4982917;28;20453;-77
2022/08/13 09:34:11;;;;;;;3.93;3.53;;;;;;;25.00;42.68;157800.84;4966853;28;20477;-77
2022/08/13 09:36:38;;;;;;;4.53;4.13;;;;;;;25.16;41.76;157842.72;4987712;28;20461;-77
2022/08/13 09:39:05;;;;;;;3.83;3.57;;;;;;;25.28;42.30;157874.09;4993872;28;20617;-77
2022/08/13 09:41:34;;;;;;;3.80;3.50;;;;;;;25.01;42.40;157803.47;4988686;28;20445;-77
2022/08/13 09:44:01;;;;;;;4.33;4.03;;;;;;;24.78;42.97;157743.25;4968116;28;20457;-77
2022/08/13 09:46:29;;;;;;;4.60;4.20;;;;;;;24.88;42.18;157768.16;4990121;28;20445;-77
2022/08/13 09:48:58;;;;;;;4.17;3.87;;;;;;;24.85;43.24;157761.59;4995959;28;20441;-77
2022/08/13 09:51:25;;;;;;;3.73;3.43;;;;;;;24.66;42.94;157711.84;4980731;28;20618;-77
2022/08/13 09:53:52;;;;;;;4.07;3.67;;;;;;;24.89;42.74;157772.03;4993220;28;20434;-77
2022/08/13 09:56:21;;;;;;;3.70;3.40;;;;;;;25.01;41.83;157803.47;4975075;28;20445;-77
2022/08/13 09:58:50;;;;;;;10.23;3.97;;;;;;;24.96;41.54;157790.41;4993219;28;20530;-77
2022/08/13 10:01:17;;;;;;;4.20;3.90;;;;;;;24.95;41.14;157787.75;5013173;28;20433;-77
2022/08/13 10:03:44;;;;;;;4.07;3.20;;;;;;;25.01;41.19;157803.47;5014020;28;20493;-77
2022/08/13 10:06:13;;;;;;;4.50;3.80;;;;;;;25.23;41.28;157859.75;5010348;28;20468;-78
2022/08/13 10:08:39;;;;;;;3.70;3.40;;;;;;;25.21;41.14;157855.81;5011635;28;20460;-77
2022/08/13 10:11:06;;;;;;;4.10;3.40;;;;;;;25.09;40.84;157824.41;4995122;28;20503;-77
2022/08/13 10:13:33;;;;;;;5.20;3.80;;;;;;;25.02;41.23;157806.06;5011868;28;20913;-77
2022/08/13 10:16:00;;;;;;;3.20;2.83;;;;;;;25.10;41.17;157825.75;4992283;28;20449;-77
2022/08/13 10:18:31;;;;;;;7.60;3.13;;;;;;;25.14;40.50;157836.19;5011771;28;20579;-77
2022/08/13 10:20:58;;;;;;;3.67;3.37;;;;;;;25.21;40.57;157854.47;5011058;28;20472;-77
2022/08/13 10:23:26;;;;;;;3.87;3.57;;;;;;;25.22;40.13;157857.13;4995426;28;20464;-77
2022/08/13 10:25:53;;;;;;;3.50;3.20;;;;;;;25.28;40.63;157872.84;5010352;28;20821;-77
2022/08/13 10:28:21;;;;;;;3.50;3.20;;;;;;;25.41;40.29;157908.19;5011603;28;20441;-77
2022/08/13 10:30:48;;;;;;;3.10;2.90;;;;;;;25.50;39.69;157930.44;4993586;28;20448;-77
2022/08/13 10:33:16;;;;;;;3.40;3.10;;;;;;;25.46;39.12;157918.63;5012142;28;21121;-77
2022/08/13 10:35:44;;;;;;;3.57;3.27;;;;;;;25.39;39.29;157901.59;5007993;28;20467;-78
2022/08/13 10:38:15;;;;;;;3.40;2.90;;;;;;;25.47;39.33;157922.56;5011774;28;20476;-77
2022/08/13 10:40:44;;;;;;;3.47;3.17;;;;;;;25.51;37.87;157933.06;4994641;28;20440;-77
2022/08/13 10:43:11;;;;;;;3.43;3.13;;;;;;;25.53;38.84;157936.97;5005422;28;20450;-77
2022/08/13 10:45:45;;;;;;;3.90;3.60;;;;;;;25.41;39.21;157908.19;4974852;28;20487;-77
2022/08/13 10:48:13;;;;;;;3.50;3.20;;;;;;;25.35;39.42;157891.13;4993146;28;20437;-77
2022/08/13 10:50:42;;;;;;;3.07;2.87;;;;;;;25.49;38.42;157927.84;4992087;28;20845;-79
2022/08/13 10:53:54;;;;;;;2.93;2.73;;;;;;;25.52;38.32;157934.41;4992945;28;20445;-77
2022/08/13 10:55:57;;;;;;;3.37;3.07;;;;;;;25.45;38.08;157917.31;4991057;28;20461;-77
2022/08/13 10:58:24;;;;;;;3.27;3.03;;;;;;;25.44;38.41;157914.72;4995405;28;20488;-77
2022/08/13 11:00:51;;;;;;;3.17;2.97;;;;;;;25.60;39.02;157955.34;5010497;28;20444;-78
2022/08/13 11:03:18;;;;;;;3.20;3.00;;;;;;;25.91;38.45;158036.50;5000102;28;20481;-77
2022/08/13 11:05:45;;;;;;;3.40;3.10;;;;;;;26.04;37.26;158070.53;4992504;28;20663;-77
2022/08/13 11:08:13;;;;;;;3.20;2.93;;;;;;;26.08;37.40;158080.97;4994642;28;20547;-78
2022/08/13 11:10:40;;;;;;;3.20;2.90;;;;;;;26.31;36.34;158141.31;4993075;28;20472;-77
2022/08/13 11:13:08;;;;;;;3.10;2.73;;;;;;;26.07;36.18;158077.06;5007101;28;20559;-77
2022/08/13 11:15:35;;;;;;;3.10;2.90;;;;;;;26.01;36.93;158062.66;4987997;28;20446;-77
2022/08/13 11:18:04;;;;;;;3.60;3.20;;;;;;;26.04;37.14;158070.53;5002806;28;20500;-77
2022/08/13 11:20:40;;;;;;;4.40;3.40;;;;;;;26.20;36.97;158112.47;5015604;28;20531;-77
2022/08/13 11:23:07;;;;;;;3.23;2.93;;;;;;;26.21;36.95;158113.81;5005865;28;20800;-77
2022/08/13 11:25:34;;;;;;;3.27;2.93;;;;;;;26.10;36.35;158086.25;4992796;28;20935;-77
2022/08/13 11:28:01;;;;;;;3.43;3.13;;;;;;;26.21;35.73;158113.81;4989637;28;20511;-77
2022/08/13 11:30:29;;;;;;;3.60;3.30;;;;;;;26.14;36.58;158095.44;5010740;28;20461;-77
2022/08/13 11:32:56;;;;;;;4.03;3.63;;;;;;;26.38;36.51;158158.31;5007633;28;20465;-77
2022/08/13 11:35:23;;;;;;;3.40;3.20;;;;;;;26.33;36.89;158145.22;5010667;28;20543;-77
2022/08/13 11:37:50;;;;;;;3.87;3.57;;;;;;;26.56;36.42;158206.75;5010097;28;20476;-77
2022/08/13 11:40:16;;;;;;;6.57;3.27;;;;;;;26.32;36.41;158143.88;5008326;28;20503;-77
2022/08/13 11:42:43;;;;;;;3.23;2.93;;;;;;;26.36;36.38;158154.41;4993421;28;20921;-77
2022/08/13 11:45:11;;;;;;;3.20;3.00;;;;;;;26.32;36.57;158143.88;4992394;28;20461;-77
2022/08/13 11:47:42;;;;;;;6.13;4.10;;;;;;;26.37;36.26;158156.97;4990855;28;20520;-77
2022/08/13 11:50:11;;;;;;;3.67;3.37;;;;;;;26.43;35.88;158172.72;4993329;28;20440;-77